sensor_id;sensor_type;location;lat;lon;timestamp;temperature;humidity
10911;DHT22;5508;49.150;11.030;2024-01-30T00:00:10;-3.40;99.90
10911;DHT22;5508;49.150;11.030;2024-01-30T00:03:10;-3.40;99.90
10911;DHT22;5508;49.150;11.030;2024-01-30T00:06:11;-3.30;99.90
10911;DHT22;5508;49.150;11.030;2024-01-30T00:09:12;-3.30;99.90
10911;DHT22;5508;49.150;11.030;2024-01-30T00:12:13;-3.40;99.90
10911;DHT22;5508;49.150;11.030;2024-01-30T00:15:13;-3.50;99.90
10911;DHT22;5508;49.150;11.030;2024-01-30T00:18:14;-3.40;99.90
10911;DHT22;5508;49.150;11.030;2024-01-30T00:21:15;-3.40;99.90
10911;DHT22;5508;49.150;11.030;2024-01-30T00:24:15;-3.40;99.90
10911;DHT22;5508;49.150;11.030;2024-01-30T00:27:16;-3.40;99.90
10911;DHT22;5508;49.150;11.030;2024-01-30T00:30:16;-3.40;99.90
10911;DHT22;5508;49.150;11.030;2024-01-30T00:33:17;-3.40;99.90
10911;DHT22;5508;49.150;11.030;2024-01-30T00:36:17;-3.50;99.90
10911;DHT22;5508;49.150;11.030;2024-01-30T00:39:18;-3.50;99.90
10911;DHT22;5508;49.150;11.030;2024-01-30T00:42:19;-3.50;99.90
10911;DHT22;5508;49.150;11.030;2024-01-30T00:45:20;-3.50;99.90
10911;DHT22;5508;49.150;11.030;2024-01-30T00:48:21;-3.50;99.90
10911;DHT22;5508;49.150;11.030;2024-01-30T00:51:21;-3.30;99.90
10911;DHT22;5508;49.150;11.030;2024-01-30T00:54:22;-3.40;99.90
10911;DHT22;5508;49.150;11.030;2024-01-30T00:57:22;-3.50;99.90
10911;DHT22;5508;49.150;11.030;2024-01-30T01:00:23;-3.60;99.90
10911;DHT22;5508;49.150;11.030;2024-01-30T01:03:29;-3.60;99.90
10911;DHT22;5508;49.150;11.030;2024-01-30T01:06:30;-3.60;99.90
10911;DHT22;5508;49.150;11.030;2024-01-30T01:09:30;-3.60;99.90
10911;DHT22;5508;49.150;11.030;2024-01-30T01:12:31;-3.50;99.90
10911;DHT22;5508;49.150;11.030;2024-01-30T01:15:31;-3.50;99.90
10911;DHT22;5508;49.150;11.030;2024-01-30T01:18:32;-3.50;99.90
10911;DHT22;5508;49.150;11.030;2024-01-30T01:21:32;-3.60;99.90
10911;DHT22;5508;49.150;11.030;2024-01-30T01:24:33;-3.70;99.90
10911;DHT22;5508;49.150;11.030;2024-01-30T01:27:34;-3.70;99.90
10911;DHT22;5508;49.150;11.030;2024-01-30T01:30:38;-3.80;99.90
10911;DHT22;5508;49.150;11.030;2024-01-30T01:33:39;-3.70;99.90
10911;DHT22;5508;49.150;11.030;2024-01-30T01:36:40;-3.70;99.90
10911;DHT22;5508;49.150;11.030;2024-01-30T01:39:40;-3.70;99.90
10911;DHT22;5508;49.150;11.030;2024-01-30T01:42:41;-3.70;99.90
10911;DHT22;5508;49.150;11.030;2024-01-30T01:45:41;-3.70;99.90
10911;DHT22;5508;49.150;11.030;2024-01-30T01:48:42;-3.70;99.90
10911;DHT22;5508;49.150;11.030;2024-01-30T01:51:44;-3.70;99.90
10911;DHT22;5508;49.150;11.030;2024-01-30T01:54:45;-3.70;99.90
10911;DHT22;5508;49.150;11.030;2024-01-30T01:57:46;-3.80;99.90
10911;DHT22;5508;49.150;11.030;2024-01-30T02:00:47;-3.70;99.90
10911;DHT22;5508;49.150;11.030;2024-01-30T02:03:47;-3.70;99.90
10911;DHT22;5508;49.150;11.030;2024-01-30T02:06:48;-3.60;99.90
10911;DHT22;5508;49.150;11.030;2024-01-30T02:09:48;-3.60;99.90
10911;DHT22;5508;49.150;11.030;2024-01-30T02:12:49;-3.60;99.90
10911;DHT22;5508;49.150;11.030;2024-01-30T02:15:51;-3.70;99.90
10911;DHT22;5508;49.150;11.030;2024-01-30T02:18:52;-3.70;99.90
10911;DHT22;5508;49.150;11.030;2024-01-30T02:21:52;-3.60;99.90
10911;DHT22;5508;49.150;11.030;2024-01-30T02:24:53;-3.60;99.90
10911;DHT22;5508;49.150;11.030;2024-01-30T02:27:54;-3.80;99.90
10911;DHT22;5508;49.150;11.030;2024-01-30T02:30:54;-3.90;99.90
10911;DHT22;5508;49.150;11.030;2024-01-30T02:33:55;-3.90;99.90
10911;DHT22;5508;49.150;11.030;2024-01-30T02:36:55;-4.00;99.90
10911;DHT22;5508;49.150;11.030;2024-01-30T02:39:56;-3.90;99.90
10911;DHT22;5508;49.150;11.030;2024-01-30T02:42:58;-3.80;99.90
10911;DHT22;5508;49.150;11.030;2024-01-30T02:45:59;-3.90;99.90
10911;DHT22;5508;49.150;11.030;2024-01-30T02:49:01;-3.90;99.90
10911;DHT22;5508;49.150;11.030;2024-01-30T02:52:02;-4.00;99.90
10911;DHT22;5508;49.150;11.030;2024-01-30T02:55:03;-4.00;99.90
10911;DHT22;5508;49.150;11.030;2024-01-30T02:58:04;-4.00;99.90
10911;DHT22;5508;49.150;11.030;2024-01-30T03:01:05;-4.00;99.90
10911;DHT22;5508;49.150;11.030;2024-01-30T03:04:05;-3.90;99.90
10911;DHT22;5508;49.150;11.030;2024-01-30T03:07:06;-3.90;99.90
10911;DHT22;5508;49.150;11.030;2024-01-30T03:10:07;-3.90;99.90
10911;DHT22;5508;49.150;11.030;2024-01-30T03:13:07;-3.90;99.90
10911;DHT22;5508;49.150;11.030;2024-01-30T03:16:08;-3.90;99.90
10911;DHT22;5508;49.150;11.030;2024-01-30T03:19:09;-3.90;99.90
10911;DHT22;5508;49.150;11.030;2024-01-30T03:22:09;-3.80;99.90
10911;DHT22;5508;49.150;11.030;2024-01-30T03:25:10;-3.80;99.90
10911;DHT22;5508;49.150;11.030;2024-01-30T03:28:10;-3.70;99.90
10911;DHT22;5508;49.150;11.030;2024-01-30T03:31:14;-3.60;99.90
10911;DHT22;5508;49.150;11.030;2024-01-30T03:34:15;-3.60;99.90
10911;DHT22;5508;49.150;11.030;2024-01-30T03:37:15;-3.60;99.90
10911;DHT22;5508;49.150;11.030;2024-01-30T03:40:16;-3.60;99.90
10911;DHT22;5508;49.150;11.030;2024-01-30T03:43:16;-3.70;99.90
10911;DHT22;5508;49.150;11.030;2024-01-30T03:46:17;-3.70;99.90
10911;DHT22;5508;49.150;11.030;2024-01-30T03:49:18;-3.70;99.90
10911;DHT22;5508;49.150;11.030;2024-01-30T03:52:18;-3.80;99.90
10911;DHT22;5508;49.150;11.030;2024-01-30T03:55:19;-3.80;99.90
10911;DHT22;5508;49.150;11.030;2024-01-30T03:58:19;-3.80;99.90
10911;DHT22;5508;49.150;11.030;2024-01-30T04:01:20;-3.80;99.90
10911;DHT22;5508;49.150;11.030;2024-01-30T04:04:21;-3.80;99.90
10911;DHT22;5508;49.150;11.030;2024-01-30T04:07:21;-3.90;99.90
10911;DHT22;5508;49.150;11.030;2024-01-30T04:10:22;-3.90;99.90
10911;DHT22;5508;49.150;11.030;2024-01-30T04:13:23;-3.90;99.90
10911;DHT22;5508;49.150;11.030;2024-01-30T04:16:24;-3.90;99.90
10911;DHT22;5508;49.150;11.030;2024-01-30T04:19:24;-3.90;99.90
10911;DHT22;5508;49.150;11.030;2024-01-30T04:22:25;-4.00;99.90
10911;DHT22;5508;49.150;11.030;2024-01-30T04:25:25;-4.00;99.90
10911;DHT22;5508;49.150;11.030;2024-01-30T04:28:26;-4.00;99.90
10911;DHT22;5508;49.150;11.030;2024-01-30T04:31:26;-3.90;99.90
10911;DHT22;5508;49.150;11.030;2024-01-30T04:34:27;-3.90;99.90
10911;DHT22;5508;49.150;11.030;2024-01-30T04:37:28;-3.90;99.90
10911;DHT22;5508;49.150;11.030;2024-01-30T04:40:28;-3.90;99.90
10911;DHT22;5508;49.150;11.030;2024-01-30T04:43:29;-3.90;99.90
10911;DHT22;5508;49.150;11.030;2024-01-30T04:46:29;-3.90;99.90
10911;DHT22;5508;49.150;11.030;2024-01-30T04:49:30;-3.90;99.90
10911;DHT22;5508;49.150;11.030;2024-01-30T04:52:30;-3.80;99.90
10911;DHT22;5508;49.150;11.030;2024-01-30T04:55:31;-3.80;99.90
10911;DHT22;5508;49.150;11.030;2024-01-30T04:58:32;-3.70;99.90
10911;DHT22;5508;49.150;11.030;2024-01-30T05:01:32;-3.70;99.90
10911;DHT22;5508;49.150;11.030;2024-01-30T05:04:33;-3.70;99.90
10911;DHT22;5508;49.150;11.030;2024-01-30T05:07:33;-3.60;99.90
10911;DHT22;5508;49.150;11.030;2024-01-30T05:10:34;-3.50;99.90
10911;DHT22;5508;49.150;11.030;2024-01-30T05:13:35;-3.50;99.90
10911;DHT22;5508;49.150;11.030;2024-01-30T05:16:35;-3.40;99.90
10911;DHT22;5508;49.150;11.030;2024-01-30T05:19:36;-3.40;99.90
10911;DHT22;5508;49.150;11.030;2024-01-30T05:22:36;-3.50;99.90
10911;DHT22;5508;49.150;11.030;2024-01-30T05:25:37;-3.50;99.90
10911;DHT22;5508;49.150;11.030;2024-01-30T05:28:38;-3.40;99.90
10911;DHT22;5508;49.150;11.030;2024-01-30T05:31:38;-3.40;99.90
10911;DHT22;5508;49.150;11.030;2024-01-30T05:34:39;-3.40;99.90
10911;DHT22;5508;49.150;11.030;2024-01-30T05:37:39;-3.40;99.90
10911;DHT22;5508;49.150;11.030;2024-01-30T05:40:40;-3.40;99.90
10911;DHT22;5508;49.150;11.030;2024-01-30T05:43:42;-3.40;99.90
10911;DHT22;5508;49.150;11.030;2024-01-30T05:46:42;-3.50;99.90
10911;DHT22;5508;49.150;11.030;2024-01-30T05:49:43;-3.50;99.90
10911;DHT22;5508;49.150;11.030;2024-01-30T05:52:43;-3.50;99.90
10911;DHT22;5508;49.150;11.030;2024-01-30T05:55:44;-3.60;99.90
10911;DHT22;5508;49.150;11.030;2024-01-30T05:58:45;-3.60;99.90
10911;DHT22;5508;49.150;11.030;2024-01-30T06:01:46;-3.50;99.90
10911;DHT22;5508;49.150;11.030;2024-01-30T06:04:47;-3.50;99.90
10911;DHT22;5508;49.150;11.030;2024-01-30T06:07:48;-3.60;99.90
10911;DHT22;5508;49.150;11.030;2024-01-30T06:10:49;-3.70;99.90
10911;DHT22;5508;49.150;11.030;2024-01-30T06:13:49;-3.70;99.90
10911;DHT22;5508;49.150;11.030;2024-01-30T06:16:50;-3.80;99.90
10911;DHT22;5508;49.150;11.030;2024-01-30T06:19:50;-3.80;99.90
10911;DHT22;5508;49.150;11.030;2024-01-30T06:22:51;-3.90;99.90
10911;DHT22;5508;49.150;11.030;2024-01-30T06:25:52;-3.90;99.90
10911;DHT22;5508;49.150;11.030;2024-01-30T06:28:52;-3.80;99.90
10911;DHT22;5508;49.150;11.030;2024-01-30T06:31:53;-3.90;99.90
10911;DHT22;5508;49.150;11.030;2024-01-30T06:34:53;-3.90;99.90
10911;DHT22;5508;49.150;11.030;2024-01-30T06:37:54;-3.90;99.90
10911;DHT22;5508;49.150;11.030;2024-01-30T06:40:54;-3.80;99.90
10911;DHT22;5508;49.150;11.030;2024-01-30T06:43:55;-3.90;99.90
10911;DHT22;5508;49.150;11.030;2024-01-30T06:46:56;-3.90;99.90
10911;DHT22;5508;49.150;11.030;2024-01-30T06:49:57;-3.90;99.90
10911;DHT22;5508;49.150;11.030;2024-01-30T06:52:57;-3.80;99.90
10911;DHT22;5508;49.150;11.030;2024-01-30T06:55:58;-3.80;99.90
10911;DHT22;5508;49.150;11.030;2024-01-30T06:58:58;-3.80;99.90
10911;DHT22;5508;49.150;11.030;2024-01-30T07:01:59;-3.80;99.90
10911;DHT22;5508;49.150;11.030;2024-01-30T07:05:00;-3.80;99.90
10911;DHT22;5508;49.150;11.030;2024-01-30T07:08:01;-3.80;99.90
10911;DHT22;5508;49.150;11.030;2024-01-30T07:11:01;-3.70;99.90
10911;DHT22;5508;49.150;11.030;2024-01-30T07:14:02;-3.60;99.90
10911;DHT22;5508;49.150;11.030;2024-01-30T07:17:05;-3.50;99.90
10911;DHT22;5508;49.150;11.030;2024-01-30T07:20:06;-3.40;99.90
10911;DHT22;5508;49.150;11.030;2024-01-30T07:23:07;-3.30;99.90
10911;DHT22;5508;49.150;11.030;2024-01-30T07:26:09;-3.30;99.90
10911;DHT22;5508;49.150;11.030;2024-01-30T07:29:09;-3.20;99.90
10911;DHT22;5508;49.150;11.030;2024-01-30T07:32:10;-3.10;99.90
10911;DHT22;5508;49.150;11.030;2024-01-30T07:35:10;-3.10;99.90
10911;DHT22;5508;49.150;11.030;2024-01-30T07:38:11;-3.00;99.90
10911;DHT22;5508;49.150;11.030;2024-01-30T07:41:12;-2.90;99.90
10911;DHT22;5508;49.150;11.030;2024-01-30T07:44:12;-2.80;99.90
10911;DHT22;5508;49.150;11.030;2024-01-30T07:47:13;-2.70;99.90
10911;DHT22;5508;49.150;11.030;2024-01-30T07:50:14;-2.60;99.90
10911;DHT22;5508;49.150;11.030;2024-01-30T07:53:14;-2.40;99.90
10911;DHT22;5508;49.150;11.030;2024-01-30T07:56:15;-2.30;99.90
10911;DHT22;5508;49.150;11.030;2024-01-30T07:59:16;-2.20;99.90
10911;DHT22;5508;49.150;11.030;2024-01-30T08:02:17;-2.00;99.90
10911;DHT22;5508;49.150;11.030;2024-01-30T08:05:17;-1.80;99.90
10911;DHT22;5508;49.150;11.030;2024-01-30T08:08:18;-1.80;99.90
10911;DHT22;5508;49.150;11.030;2024-01-30T08:11:20;-1.70;99.90
10911;DHT22;5508;49.150;11.030;2024-01-30T08:14:20;-1.60;99.90
10911;DHT22;5508;49.150;11.030;2024-01-30T08:17:21;-1.50;99.90
10911;DHT22;5508;49.150;11.030;2024-01-30T08:20:22;-1.40;99.90
10911;DHT22;5508;49.150;11.030;2024-01-30T08:23:22;-1.30;99.90
10911;DHT22;5508;49.150;11.030;2024-01-30T08:26:23;-1.20;99.90
10911;DHT22;5508;49.150;11.030;2024-01-30T08:29:24;-0.90;99.90
10911;DHT22;5508;49.150;11.030;2024-01-30T08:32:25;-0.80;99.90
10911;DHT22;5508;49.150;11.030;2024-01-30T08:35:25;-0.70;99.90
10911;DHT22;5508;49.150;11.030;2024-01-30T08:38:26;-0.50;99.90
10911;DHT22;5508;49.150;11.030;2024-01-30T08:41:26;-0.50;99.90
10911;DHT22;5508;49.150;11.030;2024-01-30T08:44:27;-0.40;99.90
10911;DHT22;5508;49.150;11.030;2024-01-30T08:47:27;-0.30;99.90
10911;DHT22;5508;49.150;11.030;2024-01-30T08:50:28;-0.10;99.90
10911;DHT22;5508;49.150;11.030;2024-01-30T08:53:30;0.10;99.90
10911;DHT22;5508;49.150;11.030;2024-01-30T08:56:30;0.40;99.90
10911;DHT22;5508;49.150;11.030;2024-01-30T08:59:31;0.70;99.90
10911;DHT22;5508;49.150;11.030;2024-01-30T09:02:32;0.90;99.90
10911;DHT22;5508;49.150;11.030;2024-01-30T09:05:32;1.30;99.90
10911;DHT22;5508;49.150;11.030;2024-01-30T09:08:33;1.60;99.90
10911;DHT22;5508;49.150;11.030;2024-01-30T09:11:35;1.80;99.90
10911;DHT22;5508;49.150;11.030;2024-01-30T09:14:37;2.10;99.90
10911;DHT22;5508;49.150;11.030;2024-01-30T09:17:38;2.30;99.90
10911;DHT22;5508;49.150;11.030;2024-01-30T09:20:38;2.50;99.90
10911;DHT22;5508;49.150;11.030;2024-01-30T09:23:39;2.70;99.90
10911;DHT22;5508;49.150;11.030;2024-01-30T09:26:39;2.90;99.90
10911;DHT22;5508;49.150;11.030;2024-01-30T09:29:40;3.20;99.60
10911;DHT22;5508;49.150;11.030;2024-01-30T09:32:41;3.40;97.80
10911;DHT22;5508;49.150;11.030;2024-01-30T09:35:42;3.50;93.50
10911;DHT22;5508;49.150;11.030;2024-01-30T09:38:42;3.60;92.10
10911;DHT22;5508;49.150;11.030;2024-01-30T09:42:00;3.90;94.30
10911;DHT22;5508;49.150;11.030;2024-01-30T09:45:03;4.00;93.10
10911;DHT22;5508;49.150;11.030;2024-01-30T09:48:06;4.30;91.80
10911;DHT22;5508;49.150;11.030;2024-01-30T09:51:09;4.60;88.20
10911;DHT22;5508;49.150;11.030;2024-01-30T09:54:10;4.80;88.10
10911;DHT22;5508;49.150;11.030;2024-01-30T09:57:11;5.10;87.60
10911;DHT22;5508;49.150;11.030;2024-01-30T10:00:12;5.40;87.30
10911;DHT22;5508;49.150;11.030;2024-01-30T10:03:13;5.50;85.30
10911;DHT22;5508;49.150;11.030;2024-01-30T10:06:15;5.70;83.00
10911;DHT22;5508;49.150;11.030;2024-01-30T10:09:17;5.90;80.90
10911;DHT22;5508;49.150;11.030;2024-01-30T10:12:18;6.00;81.50
10911;DHT22;5508;49.150;11.030;2024-01-30T10:15:19;6.20;82.70
10911;DHT22;5508;49.150;11.030;2024-01-30T10:18:22;6.30;80.00
10911;DHT22;5508;49.150;11.030;2024-01-30T10:21:24;6.30;77.80
10911;DHT22;5508;49.150;11.030;2024-01-30T10:24:25;6.20;79.50
10911;DHT22;5508;49.150;11.030;2024-01-30T10:27:29;6.30;78.30
10911;DHT22;5508;49.150;11.030;2024-01-30T10:30:30;6.30;78.10
10911;DHT22;5508;49.150;11.030;2024-01-30T10:33:30;6.40;79.10
10911;DHT22;5508;49.150;11.030;2024-01-30T10:36:36;6.50;80.50
10911;DHT22;5508;49.150;11.030;2024-01-30T10:39:40;6.60;81.20
10911;DHT22;5508;49.150;11.030;2024-01-30T10:42:45;6.50;78.10
10911;DHT22;5508;49.150;11.030;2024-01-30T10:45:49;6.50;80.70
10911;DHT22;5508;49.150;11.030;2024-01-30T10:48:57;6.60;80.50
10911;DHT22;5508;49.150;11.030;2024-01-30T10:51:59;6.70;80.70
10911;DHT22;5508;49.150;11.030;2024-01-30T10:55:00;6.70;79.20
10911;DHT22;5508;49.150;11.030;2024-01-30T10:58:01;6.90;77.90
10911;DHT22;5508;49.150;11.030;2024-01-30T11:01:03;6.60;78.50
10911;DHT22;5508;49.150;11.030;2024-01-30T11:04:03;6.90;77.20
10911;DHT22;5508;49.150;11.030;2024-01-30T11:07:18;7.00;77.20
10911;DHT22;5508;49.150;11.030;2024-01-30T11:10:21;7.00;76.50
10911;DHT22;5508;49.150;11.030;2024-01-30T11:13:29;7.20;76.20
10911;DHT22;5508;49.150;11.030;2024-01-30T11:16:32;7.30;77.70
10911;DHT22;5508;49.150;11.030;2024-01-30T11:19:33;7.30;75.30
10911;DHT22;5508;49.150;11.030;2024-01-30T11:22:34;7.40;75.30
10911;DHT22;5508;49.150;11.030;2024-01-30T11:25:34;7.50;76.60
10911;DHT22;5508;49.150;11.030;2024-01-30T11:28:37;7.50;75.20
10911;DHT22;5508;49.150;11.030;2024-01-30T11:31:38;7.60;73.80
10911;DHT22;5508;49.150;11.030;2024-01-30T11:34:41;7.60;76.00
10911;DHT22;5508;49.150;11.030;2024-01-30T11:37:43;7.70;73.80
10911;DHT22;5508;49.150;11.030;2024-01-30T11:40:46;7.70;75.30
10911;DHT22;5508;49.150;11.030;2024-01-30T11:43:52;7.70;73.80
10911;DHT22;5508;49.150;11.030;2024-01-30T11:46:53;7.80;76.40
10911;DHT22;5508;49.150;11.030;2024-01-30T11:49:53;7.80;73.90
10911;DHT22;5508;49.150;11.030;2024-01-30T11:52:54;7.90;73.70
10911;DHT22;5508;49.150;11.030;2024-01-30T11:55:55;8.00;74.10
10911;DHT22;5508;49.150;11.030;2024-01-30T11:58:56;7.90;74.80
10911;DHT22;5508;49.150;11.030;2024-01-30T12:01:56;8.00;76.10
10911;DHT22;5508;49.150;11.030;2024-01-30T12:04:57;7.90;74.00
10911;DHT22;5508;49.150;11.030;2024-01-30T12:07:57;7.90;75.70
10911;DHT22;5508;49.150;11.030;2024-01-30T12:11:01;8.10;75.50
10911;DHT22;5508;49.150;11.030;2024-01-30T12:14:02;8.20;74.30
10911;DHT22;5508;49.150;11.030;2024-01-30T12:17:03;8.30;74.50
10911;DHT22;5508;49.150;11.030;2024-01-30T12:20:10;8.40;71.50
10911;DHT22;5508;49.150;11.030;2024-01-30T12:23:14;8.40;71.40
10911;DHT22;5508;49.150;11.030;2024-01-30T12:26:14;8.40;71.60
10911;DHT22;5508;49.150;11.030;2024-01-30T12:29:15;8.50;74.50
10911;DHT22;5508;49.150;11.030;2024-01-30T12:32:16;8.50;74.50
10911;DHT22;5508;49.150;11.030;2024-01-30T12:35:18;8.40;74.00
10911;DHT22;5508;49.150;11.030;2024-01-30T12:38:19;8.40;74.10
10911;DHT22;5508;49.150;11.030;2024-01-30T12:41:20;8.60;71.80
10911;DHT22;5508;49.150;11.030;2024-01-30T12:44:20;8.60;71.30
10911;DHT22;5508;49.150;11.030;2024-01-30T12:47:21;8.60;71.60
10911;DHT22;5508;49.150;11.030;2024-01-30T12:50:22;8.60;71.60
10911;DHT22;5508;49.150;11.030;2024-01-30T12:53:22;8.70;72.00
10911;DHT22;5508;49.150;11.030;2024-01-30T12:56:23;8.70;71.80
10911;DHT22;5508;49.150;11.030;2024-01-30T12:59:24;8.80;73.90
10911;DHT22;5508;49.150;11.030;2024-01-30T13:02:24;9.00;73.20
10911;DHT22;5508;49.150;11.030;2024-01-30T13:05:26;8.90;74.70
10911;DHT22;5508;49.150;11.030;2024-01-30T13:08:27;9.10;72.10
10911;DHT22;5508;49.150;11.030;2024-01-30T13:11:28;9.20;70.50
10911;DHT22;5508;49.150;11.030;2024-01-30T13:14:28;9.30;70.20
10911;DHT22;5508;49.150;11.030;2024-01-30T13:17:29;9.20;74.30
10911;DHT22;5508;49.150;11.030;2024-01-30T13:20:30;9.10;72.20
10911;DHT22;5508;49.150;11.030;2024-01-30T13:23:30;9.00;72.00
10911;DHT22;5508;49.150;11.030;2024-01-30T13:26:34;9.00;72.10
10911;DHT22;5508;49.150;11.030;2024-01-30T13:29:34;8.90;72.80
10911;DHT22;5508;49.150;11.030;2024-01-30T13:32:35;9.00;72.80
10911;DHT22;5508;49.150;11.030;2024-01-30T13:35:36;8.90;75.60
10911;DHT22;5508;49.150;11.030;2024-01-30T13:38:37;8.90;73.50
10911;DHT22;5508;49.150;11.030;2024-01-30T13:41:38;8.80;75.10
10911;DHT22;5508;49.150;11.030;2024-01-30T13:44:38;8.80;75.90
10911;DHT22;5508;49.150;11.030;2024-01-30T13:47:39;8.80;77.20
10911;DHT22;5508;49.150;11.030;2024-01-30T13:50:40;8.90;75.90
10911;DHT22;5508;49.150;11.030;2024-01-30T13:53:40;8.90;76.40
10911;DHT22;5508;49.150;11.030;2024-01-30T13:56:41;8.90;76.10
10911;DHT22;5508;49.150;11.030;2024-01-30T13:59:41;8.90;76.10
10911;DHT22;5508;49.150;11.030;2024-01-30T14:02:42;8.80;77.60
10911;DHT22;5508;49.150;11.030;2024-01-30T14:05:43;8.90;77.40
10911;DHT22;5508;49.150;11.030;2024-01-30T14:08:44;8.90;77.40
10911;DHT22;5508;49.150;11.030;2024-01-30T14:11:44;9.00;76.50
10911;DHT22;5508;49.150;11.030;2024-01-30T14:14:45;9.10;74.00
10911;DHT22;5508;49.150;11.030;2024-01-30T14:17:46;9.10;74.70
10911;DHT22;5508;49.150;11.030;2024-01-30T14:20:48;9.10;73.60
10911;DHT22;5508;49.150;11.030;2024-01-30T14:23:49;9.10;71.30
10911;DHT22;5508;49.150;11.030;2024-01-30T14:26:50;9.00;72.00
10911;DHT22;5508;49.150;11.030;2024-01-30T14:29:51;8.80;73.60
10911;DHT22;5508;49.150;11.030;2024-01-30T14:32:52;8.70;73.90
10911;DHT22;5508;49.150;11.030;2024-01-30T14:35:52;8.70;72.30
10911;DHT22;5508;49.150;11.030;2024-01-30T14:38:54;8.60;74.10
10911;DHT22;5508;49.150;11.030;2024-01-30T14:41:55;8.50;74.10
10911;DHT22;5508;49.150;11.030;2024-01-30T14:44:56;8.40;75.30
10911;DHT22;5508;49.150;11.030;2024-01-30T14:47:56;8.30;76.10
10911;DHT22;5508;49.150;11.030;2024-01-30T14:50:57;8.20;77.80
10911;DHT22;5508;49.150;11.030;2024-01-30T14:53:58;8.10;80.00
10911;DHT22;5508;49.150;11.030;2024-01-30T14:56:59;8.10;79.50
10911;DHT22;5508;49.150;11.030;2024-01-30T15:00:00;8.00;81.80
10911;DHT22;5508;49.150;11.030;2024-01-30T15:03:00;7.90;81.20
10911;DHT22;5508;49.150;11.030;2024-01-30T15:06:01;7.80;82.40
10911;DHT22;5508;49.150;11.030;2024-01-30T15:09:01;7.70;82.50
10911;DHT22;5508;49.150;11.030;2024-01-30T15:12:03;7.70;83.00
10911;DHT22;5508;49.150;11.030;2024-01-30T15:15:06;7.70;81.20
10911;DHT22;5508;49.150;11.030;2024-01-30T15:18:08;7.50;84.00
10911;DHT22;5508;49.150;11.030;2024-01-30T15:21:11;7.40;84.00
10911;DHT22;5508;49.150;11.030;2024-01-30T15:24:11;7.20;84.40
10911;DHT22;5508;49.150;11.030;2024-01-30T15:27:15;7.00;86.90
10911;DHT22;5508;49.150;11.030;2024-01-30T15:30:16;6.80;89.20
10911;DHT22;5508;49.150;11.030;2024-01-30T15:33:16;6.60;91.30
10911;DHT22;5508;49.150;11.030;2024-01-30T15:36:17;6.40;91.70
10911;DHT22;5508;49.150;11.030;2024-01-30T15:39:17;6.20;93.00
10911;DHT22;5508;49.150;11.030;2024-01-30T15:42:18;6.10;94.50
10911;DHT22;5508;49.150;11.030;2024-01-30T15:45:20;5.90;94.30
10911;DHT22;5508;49.150;11.030;2024-01-30T15:48:20;5.80;94.70
10911;DHT22;5508;49.150;11.030;2024-01-30T15:51:21;5.70;95.70
10911;DHT22;5508;49.150;11.030;2024-01-30T15:54:21;5.50;96.10
10911;DHT22;5508;49.150;11.030;2024-01-30T15:57:22;5.40;97.20
10911;DHT22;5508;49.150;11.030;2024-01-30T16:00:23;5.30;97.90
10911;DHT22;5508;49.150;11.030;2024-01-30T16:03:24;5.10;98.20
10911;DHT22;5508;49.150;11.030;2024-01-30T16:06:24;5.10;99.10
10911;DHT22;5508;49.150;11.030;2024-01-30T16:09:25;5.00;99.10
10911;DHT22;5508;49.150;11.030;2024-01-30T16:12:26;4.80;99.10
10911;DHT22;5508;49.150;11.030;2024-01-30T16:15:26;4.80;98.90
10911;DHT22;5508;49.150;11.030;2024-01-30T16:18:27;4.70;99.20
10911;DHT22;5508;49.150;11.030;2024-01-30T16:21:31;4.50;99.40
10911;DHT22;5508;49.150;11.030;2024-01-30T16:24:32;4.50;99.70
10911;DHT22;5508;49.150;11.030;2024-01-30T16:27:32;4.40;99.90
10911;DHT22;5508;49.150;11.030;2024-01-30T16:30:33;4.20;99.90
10911;DHT22;5508;49.150;11.030;2024-01-30T16:33:33;4.10;99.90
10911;DHT22;5508;49.150;11.030;2024-01-30T16:36:34;3.90;99.90
10911;DHT22;5508;49.150;11.030;2024-01-30T16:39:34;3.80;99.90
10911;DHT22;5508;49.150;11.030;2024-01-30T16:42:35;3.70;99.90
10911;DHT22;5508;49.150;11.030;2024-01-30T16:45:36;3.60;99.90
10911;DHT22;5508;49.150;11.030;2024-01-30T16:48:36;3.50;99.90
10911;DHT22;5508;49.150;11.030;2024-01-30T16:51:37;3.40;99.90
10911;DHT22;5508;49.150;11.030;2024-01-30T16:54:37;3.30;99.90
10911;DHT22;5508;49.150;11.030;2024-01-30T16:57:38;3.20;99.90
10911;DHT22;5508;49.150;11.030;2024-01-30T17:00:38;3.10;99.90
10911;DHT22;5508;49.150;11.030;2024-01-30T17:03:39;3.10;99.90
10911;DHT22;5508;49.150;11.030;2024-01-30T17:06:42;3.10;99.90
10911;DHT22;5508;49.150;11.030;2024-01-30T17:09:42;3.10;99.90
10911;DHT22;5508;49.150;11.030;2024-01-30T17:12:43;3.10;99.90
10911;DHT22;5508;49.150;11.030;2024-01-30T17:15:44;3.00;99.90
10911;DHT22;5508;49.150;11.030;2024-01-30T17:18:45;3.10;99.90
10911;DHT22;5508;49.150;11.030;2024-01-30T17:21:45;3.10;99.90
10911;DHT22;5508;49.150;11.030;2024-01-30T17:24:46;3.00;99.90
10911;DHT22;5508;49.150;11.030;2024-01-30T17:27:47;3.00;99.90
10911;DHT22;5508;49.150;11.030;2024-01-30T17:30:49;3.00;99.90
10911;DHT22;5508;49.150;11.030;2024-01-30T17:33:49;3.00;99.90
10911;DHT22;5508;49.150;11.030;2024-01-30T17:36:51;2.90;99.90
10911;DHT22;5508;49.150;11.030;2024-01-30T17:39:51;2.90;99.90
10911;DHT22;5508;49.150;11.030;2024-01-30T17:42:52;2.80;99.90
10911;DHT22;5508;49.150;11.030;2024-01-30T17:45:52;2.80;99.90
10911;DHT22;5508;49.150;11.030;2024-01-30T17:48:53;2.70;99.90
10911;DHT22;5508;49.150;11.030;2024-01-30T17:51:54;2.60;99.90
10911;DHT22;5508;49.150;11.030;2024-01-30T17:54:54;2.60;99.90
10911;DHT22;5508;49.150;11.030;2024-01-30T17:57:55;2.50;99.90
10911;DHT22;5508;49.150;11.030;2024-01-30T18:00:56;2.50;99.90
10911;DHT22;5508;49.150;11.030;2024-01-30T18:03:58;2.40;99.90
10911;DHT22;5508;49.150;11.030;2024-01-30T18:06:58;2.30;99.90
10911;DHT22;5508;49.150;11.030;2024-01-30T18:09:59;2.30;99.90
10911;DHT22;5508;49.150;11.030;2024-01-30T18:12:59;2.40;99.90
10911;DHT22;5508;49.150;11.030;2024-01-30T18:16:01;2.40;99.90
10911;DHT22;5508;49.150;11.030;2024-01-30T18:19:02;2.50;99.90
10911;DHT22;5508;49.150;11.030;2024-01-30T18:22:03;2.50;99.90
10911;DHT22;5508;49.150;11.030;2024-01-30T18:25:04;2.50;99.90
10911;DHT22;5508;49.150;11.030;2024-01-30T18:28:05;2.40;99.90
10911;DHT22;5508;49.150;11.030;2024-01-30T18:31:06;2.30;99.90
10911;DHT22;5508;49.150;11.030;2024-01-30T18:34:06;2.20;99.90
10911;DHT22;5508;49.150;11.030;2024-01-30T18:37:07;2.10;99.90
10911;DHT22;5508;49.150;11.030;2024-01-30T18:40:10;2.00;99.90
10911;DHT22;5508;49.150;11.030;2024-01-30T18:43:11;1.90;99.90
10911;DHT22;5508;49.150;11.030;2024-01-30T18:46:11;1.90;99.90
10911;DHT22;5508;49.150;11.030;2024-01-30T18:49:12;1.80;99.90
10911;DHT22;5508;49.150;11.030;2024-01-30T18:52:13;1.80;99.90
10911;DHT22;5508;49.150;11.030;2024-01-30T18:55:13;1.70;99.90
10911;DHT22;5508;49.150;11.030;2024-01-30T18:58:14;1.70;99.90
10911;DHT22;5508;49.150;11.030;2024-01-30T19:01:16;1.70;99.90
10911;DHT22;5508;49.150;11.030;2024-01-30T19:04:19;1.60;99.90
10911;DHT22;5508;49.150;11.030;2024-01-30T19:07:20;1.60;99.90
10911;DHT22;5508;49.150;11.030;2024-01-30T19:10:22;1.60;99.90
10911;DHT22;5508;49.150;11.030;2024-01-30T19:13:22;1.60;99.90